TimeAKDT,TemperatureF,Dew PointF,Humidity,Sea Level PressureIn,VisibilityMPH,Wind Direction,Wind SpeedMPH,Gust SpeedMPH,PrecipitationIn,Events,Conditions,WindDirDegrees,DateUTC
12:54 AM,24.1,12.0,60,30.31,10.0,WNW,10.4,-,N/A,,Overcast,290,2013-03-23 08:54:00
1:54 AM,23.0,12.0,63,30.30,10.0,WNW,10.4,-,N/A,,Overcast,290,2013-03-23 09:54:00
2:13 AM,23.0,12.2,63,30.28,10.0,WNW,9.2,-,N/A,,Overcast,290,2013-03-23 10:13:00
2:54 AM,23.0,12.9,65,30.29,10.0,WNW,12.7,-,N/A,,Overcast,290,2013-03-23 10:54:00
3:04 AM,23.0,12.2,63,30.28,10.0,WNW,11.5,-,N/A,,Overcast,290,2013-03-23 11:04:00
3:26 AM,21.2,12.2,68,30.28,10.0,West,11.5,-,N/A,,Mostly Cloudy,280,2013-03-23 11:26:00
3:54 AM,21.9,12.0,66,30.28,10.0,WNW,12.7,-,N/A,,Overcast,290,2013-03-23 11:54:00
4:01 AM,21.2,12.2,68,30.27,10.0,WNW,12.7,-,N/A,,Overcast,290,2013-03-23 12:01:00
4:54 AM,23.0,10.9,60,30.28,10.0,WNW,12.7,-,N/A,,Overcast,290,2013-03-23 12:54:00
5:54 AM,23.0,10.9,60,30.28,10.0,WNW,12.7,-,N/A,,Overcast,300,2013-03-23 13:54:00
6:54 AM,23.0,12.9,65,30.28,10.0,WNW,11.5,-,N/A,,Overcast,300,2013-03-23 14:54:00
7:54 AM,21.9,15.1,75,30.27,10.0,WNW,9.2,-,N/A,,Overcast,290,2013-03-23 15:54:00
8:54 AM,21.9,12.9,68,30.27,10.0,WNW,12.7,-,N/A,,Overcast,290,2013-03-23 16:54:00
9:54 AM,24.1,15.1,69,30.27,10.0,WNW,11.5,-,N/A,,Overcast,290,2013-03-23 17:54:00
10:54 AM,24.1,15.1,69,30.27,10.0,WNW,10.4,-,0.00,,Overcast,290,2013-03-23 18:54:00
11:54 AM,26.1,16.0,66,30.25,10.0,West,6.9,-,N/A,,Overcast,280,2013-03-23 19:54:00
12:54 PM,27.0,17.1,66,30.25,10.0,WNW,5.8,-,N/A,,Overcast,290,2013-03-23 20:54:00
1:54 PM,28.0,21.0,75,30.24,10.0,Calm,Calm,-,0.00,,Overcast,0,2013-03-23 21:54:00
2:54 PM,28.9,24.1,82,30.23,2.5,Calm,Calm,-,0.00,Snow,Light Snow,0,2013-03-23 22:54:00
3:06 PM,28.4,24.8,86,30.22,1.5,Calm,Calm,-,0.00,Snow,Light Snow,0,2013-03-23 23:06:00
3:37 PM,30.2,24.8,80,30.21,2.0,Calm,Calm,-,0.00,Snow,Light Snow,0,2013-03-23 23:37:00
3:44 PM,30.2,24.8,80,30.21,1.5,Calm,Calm,-,0.00,Snow,Light Snow,0,2013-03-23 23:44:00
3:54 PM,28.0,25.0,88,30.22,1.8,Calm,Calm,-,0.00,Snow,Light Snow,0,2013-03-23 23:54:00
4:54 PM,27.0,25.0,92,30.20,1.5,Calm,Calm,-,0.00,Snow,Light Snow,0,2013-03-24 00:54:00
5:33 PM,28.4,26.6,93,30.19,1.0,Calm,Calm,-,0.01,Snow,Light Snow,0,2013-03-24 01:33:00
5:41 PM,28.4,26.6,93,30.19,1.2,West,3.5,-,0.01,Snow,Light Snow,280,2013-03-24 01:41:00
5:54 PM,28.0,26.1,92,30.20,1.0,WNW,3.5,-,0.01,Snow,Light Snow,290,2013-03-24 01:54:00
6:06 PM,28.4,26.6,93,30.19,1.0,WNW,3.5,-,0.00,Snow,Light Snow,290,2013-03-24 02:06:00
6:28 PM,28.4,26.6,93,30.19,0.8,WNW,5.8,-,0.01,Snow,Light Snow,290,2013-03-24 02:28:00
6:54 PM,28.0,26.1,92,30.19,0.8,WNW,6.9,-,0.01,Snow,Light Snow,290,2013-03-24 02:54:00
7:27 PM,28.4,26.6,93,30.18,1.2,NW,4.6,-,0.01,Snow,Light Snow,310,2013-03-24 03:27:00
7:54 PM,28.0,26.1,92,30.19,1.2,WNW,6.9,-,0.02,Snow,Light Snow,290,2013-03-24 03:54:00
8:33 PM,28.4,26.6,93,30.18,2.0,WNW,3.5,-,0.01,Snow,Light Snow,290,2013-03-24 04:33:00
8:54 PM,28.0,26.1,92,30.19,2.0,WNW,3.5,-,0.01,Snow,Light Snow,290,2013-03-24 04:54:00
9:14 PM,28.4,26.6,93,30.18,2.0,WNW,5.8,-,0.00,Snow,Light Snow,300,2013-03-24 05:14:00
9:54 PM,28.0,26.1,92,30.19,2.5,WNW,6.9,-,0.00,Snow,Light Snow,290,2013-03-24 05:54:00
10:11 PM,28.4,26.6,93,30.17,3.0,WNW,9.2,-,0.00,Snow,Light Snow,300,2013-03-24 06:11:00
10:30 PM,28.4,26.6,93,30.17,2.5,WNW,9.2,-,0.00,Snow,Light Snow,300,2013-03-24 06:30:00
10:52 PM,28.4,26.6,93,30.18,1.8,WNW,8.1,-,0.01,Snow,Light Snow,290,2013-03-24 06:52:00
10:54 PM,28.0,26.1,92,30.18,1.8,WNW,8.1,-,0.01,Snow,Light Snow,290,2013-03-24 06:54:00
11:01 PM,28.4,26.6,93,30.17,2.0,WNW,8.1,-,0.00,Snow,Light Snow,290,2013-03-24 07:01:00
11:18 PM,28.4,26.6,93,30.17,2.0,WNW,8.1,-,0.00,Snow,Light Snow,290,2013-03-24 07:18:00
11:44 PM,28.4,26.6,93,30.17,3.0,WNW,8.1,-,0.00,Snow,Light Snow,290,2013-03-24 07:44:00
11:54 PM,28.0,26.1,92,30.17,2.5,WNW,8.1,-,0.00,Snow,Light Snow,290,2013-03-24 07:54:00